TimeAKDT,TemperatureF,Dew PointF,Humidity,Sea Level PressureIn,VisibilityMPH,Wind Direction,Wind SpeedMPH,Gust SpeedMPH,PrecipitationIn,Events,Conditions,WindDirDegrees,DateUTC
12:53 AM,37.0,30.9,79,30.12,10.0,NNE,3.5,-,N/A,,Overcast,30,2012-10-01 08:53:00
1:53 AM,35.1,28.9,78,30.13,10.0,Calm,Calm,-,N/A,,Overcast,0,2012-10-01 09:53:00
2:53 AM,37.0,30.0,76,30.14,10.0,Calm,Calm,-,N/A,,Mostly Cloudy,0,2012-10-01 10:53:00
3:53 AM,34.0,28.9,82,30.15,10.0,Calm,Calm,-,N/A,,Clear,0,2012-10-01 11:53:00
4:53 AM,32.0,28.0,85,30.17,10.0,Calm,Calm,-,N/A,,Clear,0,2012-10-01 12:53:00
5:53 AM,34.0,30.0,85,30.19,10.0,Calm,Calm,-,N/A,,Mostly Cloudy,0,2012-10-01 13:53:00
6:53 AM,35.1,30.0,82,30.20,10.0,NE,3.5,-,N/A,,Mostly Cloudy,50,2012-10-01 14:53:00
7:53 AM,34.0,30.0,85,30.22,10.0,Calm,Calm,-,N/A,,Scattered Clouds,0,2012-10-01 15:53:00
8:53 AM,34.0,28.9,82,30.22,10.0,NE,3.5,-,N/A,,Scattered Clouds,50,2012-10-01 16:53:00
9:53 AM,37.9,30.9,76,30.24,10.0,ENE,8.1,-,N/A,,Scattered Clouds,60,2012-10-01 17:53:00
10:53 AM,41.0,34.0,76,30.25,10.0,ENE,6.9,-,N/A,,Mostly Cloudy,60,2012-10-01 18:53:00
11:53 AM,43.0,32.0,65,30.27,10.0,ENE,6.9,-,N/A,,Overcast,70,2012-10-01 19:53:00
12:53 PM,45.0,32.0,60,30.27,10.0,ENE,4.6,-,N/A,,Overcast,60,2012-10-01 20:53:00
1:53 PM,45.0,36.0,71,30.29,10.0,East,5.8,-,0.00,,Overcast,80,2012-10-01 21:53:00
2:53 PM,46.0,37.0,71,30.30,10.0,ENE,4.6,-,0.00,,Overcast,60,2012-10-01 22:53:00
3:53 PM,46.0,33.1,61,30.30,10.0,East,5.8,-,N/A,,Overcast,80,2012-10-01 23:53:00
4:53 PM,46.9,33.1,59,30.31,10.0,ENE,5.8,-,N/A,,Overcast,60,2012-10-02 00:53:00
5:53 PM,46.9,35.1,63,30.30,10.0,NE,4.6,-,N/A,,Overcast,40,2012-10-02 01:53:00
6:53 PM,46.9,37.0,68,30.32,10.0,Calm,Calm,-,N/A,,Overcast,0,2012-10-02 02:53:00
7:53 PM,46.0,37.9,73,30.32,10.0,Calm,Calm,-,N/A,,Overcast,0,2012-10-02 03:53:00
8:53 PM,46.0,39.0,76,30.32,10.0,NE,4.6,-,N/A,,Overcast,50,2012-10-02 04:53:00
9:26 PM,46.4,37.4,71,30.32,10.0,ENE,3.5,-,N/A,,Overcast,60,2012-10-02 05:26:00
9:53 PM,46.0,37.9,73,30.33,10.0,ENE,6.9,-,N/A,,Overcast,60,2012-10-02 05:53:00
10:53 PM,46.0,39.0,76,30.34,10.0,NE,4.6,-,N/A,,Overcast,50,2012-10-02 06:53:00
11:53 PM,46.0,37.9,73,30.34,10.0,ENE,4.6,-,N/A,,Overcast,60,2012-10-02 07:53:00